Time;durP1;ratioP1;P1;durP2;ratioP2;P2;SDS_P1;SDS_P2;PMS_P1;PMS_P2;Temp;Humidity;BMP_temperature;BMP_pressure;BME280_temperature;BME280_humidity;BME280_pressure;Samples;Min_cycle;Max_cycle;Signal;HPM_P1;HPM_P2
2021/11/24 00:01:45;;;;;;;5.85;3.15;;;24.60;67.80;;;;;;4134557;28;20098;-64
2021/11/24 00:03:48;;;;;;;7.97;3.08;;;24.60;67.90;;;;;;4140305;28;20056;-64
2021/11/24 00:05:50;;;;;;;4.68;3.03;;;24.60;68.00;;;;;;4146786;28;20214;-64
2021/11/24 00:07:53;;;;;;;4.75;3.45;;;24.60;68.10;;;;;;4141965;28;20186;-63
2021/11/24 00:09:55;;;;;;;7.22;3.47;;;24.60;68.40;;;;;;4120430;28;20138;-67
2021/11/24 00:11:57;;;;;;;8.98;3.40;;;24.70;68.20;;;;;;4141466;28;20928;-65
2021/11/24 00:14:00;;;;;;;4.68;2.70;;;24.70;68.20;;;;;;4138032;28;20194;-63
2021/11/24 00:16:07;;;;;;;4.60;2.63;;;24.70;68.00;;;;;;4138563;28;20055;-63
2021/11/24 00:18:09;;;;;;;4.38;2.95;;;24.70;68.00;;;;;;4138346;28;20052;-65
2021/11/24 00:20:12;;;;;;;4.05;3.03;;;24.70;68.00;;;;;;4137391;28;20048;-66
2021/11/24 00:22:14;;;;;;;5.00;3.00;;;24.80;68.10;;;;;;4142655;28;20078;-63
2021/11/24 00:24:16;;;;;;;3.80;2.70;;;24.80;68.10;;;;;;4134186;28;20137;-67
2021/11/24 00:26:18;;;;;;;5.03;3.27;;;24.80;68.00;;;;;;4136785;28;20113;-66
2021/11/24 00:28:21;;;;;;;5.47;3.30;;;24.80;68.00;;;;;;4139778;28;21780;-64
2021/11/24 00:30:23;;;;;;;4.82;3.15;;;24.80;68.00;;;;;;4139488;28;20151;-64
2021/11/24 00:32:25;;;;;;;5.45;3.42;;;24.80;68.00;;;;;;4138603;28;20133;-64
2021/11/24 00:34:28;;;;;;;5.27;3.70;;;24.80;68.00;;;;;;4142547;28;20994;-68
2021/11/24 00:36:30;;;;;;;4.97;3.20;;;24.90;68.00;;;;;;4126686;28;22570;-67
2021/11/24 00:38:32;;;;;;;6.73;3.23;;;24.90;68.00;;;;;;4131572;28;20063;-66
2021/11/24 00:40:35;;;;;;;4.35;3.30;;;24.90;68.00;;;;;;4133025;28;20060;-66
2021/11/24 00:42:38;;;;;;;4.45;3.47;;;24.90;67.90;;;;;;4134916;28;20087;-67
2021/11/24 00:44:40;;;;;;;5.15;3.53;;;25.00;67.90;;;;;;4136443;28;20985;-68
2021/11/24 00:46:43;;;;;;;5.10;3.43;;;24.90;67.80;;;;;;4141286;28;20122;-67
2021/11/24 00:48:45;;;;;;;;;;;25.00;67.80;;;;;;4121964;28;20188;-66
2021/11/24 00:50:47;;;;;;;4.28;3.05;;;25.00;67.80;;;;;;4119015;28;20307;-66
2021/11/24 00:52:52;;;;;;;5.78;3.42;;;25.10;67.80;;;;;;4118231;28;20057;-66
2021/11/24 00:54:54;;;;;;;5.65;3.42;;;25.10;67.70;;;;;;4133136;28;20040;-66
2021/11/24 00:56:57;;;;;;;4.18;3.10;;;25.10;67.70;;;;;;4118005;28;20064;-67
2021/11/24 00:58:59;;;;;;;4.55;3.08;;;25.10;67.70;;;;;;4134396;28;20044;-67
2021/11/24 01:02:11;;;;;;;3.55;2.75;;;25.10;67.00;;;;;;4150662;27;20436;-67
2021/11/24 01:04:14;;;;;;;3.78;3.13;;;25.10;67.50;;;;;;4129465;28;20602;-69
2021/11/24 01:06:16;;;;;;;3.97;3.05;;;25.10;67.50;;;;;;4150882;28;20055;-62
2021/11/24 01:08:19;;;;;;;4.72;3.20;;;25.20;67.50;;;;;;4145131;28;20048;-62
2021/11/24 01:10:21;;;;;;;7.47;4.57;;;25.20;67.50;;;;;;4147216;28;20055;-60
2021/11/24 01:12:26;;;;;;;8.93;5.83;;;25.20;68.60;;;;;;4134130;28;20049;-64
2021/11/24 01:14:29;;;;;;;9.55;6.90;;;25.20;67.90;;;;;;4150513;28;20047;-64
2021/11/24 01:16:31;;;;;;;12.63;7.07;;;25.20;67.90;;;;;;4151466;28;20048;-64
2021/11/24 01:18:33;;;;;;;14.65;8.70;;;25.30;67.90;;;;;;4157368;28;20047;-63
2021/11/24 01:20:36;;;;;;;10.60;7.22;;;25.30;67.90;;;;;;4159497;28;20085;-63
2021/11/24 01:22:38;;;;;;;13.30;7.97;;;25.30;68.40;;;;;;4156694;28;20905;-62
2021/11/24 01:24:41;;;;;;;10.98;7.13;;;25.30;67.70;;;;;;4149297;28;20167;-64
2021/11/24 01:26:48;;;;;;;10.57;7.32;;;25.40;67.70;;;;;;4151699;28;20160;-63
2021/11/24 01:28:50;;;;;;;11.90;7.53;;;25.40;67.60;;;;;;4151679;28;20060;-61
2021/11/24 01:30:53;;;;;;;12.10;7.07;;;25.40;67.50;;;;;;4149131;28;20263;-62
2021/11/24 01:32:55;;;;;;;14.90;6.93;;;25.40;67.70;;;;;;4143221;28;20048;-63
2021/11/24 01:34:57;;;;;;;11.60;6.87;;;25.40;67.80;;;;;;4152274;28;20059;-63
2021/11/24 01:37:02;;;;;;;8.15;5.70;;;25.40;67.90;;;;;;4154699;28;20597;-63
2021/11/24 01:39:05;;;;;;;8.40;5.60;;;25.40;67.90;;;;;;4153127;28;20791;-63
2021/11/24 01:41:07;;;;;;;7.97;4.95;;;25.50;68.00;;;;;;4151573;28;20048;-63
2021/11/24 01:43:09;;;;;;;10.57;5.65;;;25.40;68.00;;;;;;4150504;28;20079;-63
2021/11/24 01:45:14;;;;;;;8.93;5.67;;;25.50;68.00;;;;;;4149659;28;20582;-62
2021/11/24 01:47:16;;;;;;;8.23;5.00;;;25.50;68.00;;;;;;4148218;28;20300;-61
2021/11/24 01:49:19;;;;;;;7.07;4.55;;;25.50;68.00;;;;;;4149614;28;20245;-61
2021/11/24 01:51:22;;;;;;;8.70;4.80;;;25.60;68.10;;;;;;4157453;28;20142;-65
2021/11/24 01:53:26;;;;;;;8.15;4.70;;;25.60;68.10;;;;;;4151492;28;20055;-64
2021/11/24 01:55:28;;;;;;;6.40;4.32;;;25.60;68.10;;;;;;4149677;28;20052;-62
2021/11/24 01:57:30;;;;;;;10.88;4.35;;;25.70;68.20;;;;;;4151932;28;20063;-60
2021/11/24 01:59:33;;;;;;;6.53;4.00;;;25.70;68.60;;;;;;4153296;28;20880;-60
2021/11/24 02:01:35;;;;;;;9.10;3.88;;;;;;;;;;4149893;28;20063;-61
2021/11/24 02:03:37;;;;;;;7.50;4.40;;;25.70;68.20;;;;;;4156068;28;20592;-59
2021/11/24 02:05:39;;;;;;;6.93;4.50;;;25.80;68.60;;;;;;4153771;28;20055;-59
2021/11/24 02:07:42;;;;;;;7.10;4.43;;;25.80;69.20;;;;;;4149470;28;21805;-66
2021/11/24 02:09:45;;;;;;;10.75;6.07;;;25.90;69.00;;;;;;4129327;28;22097;-65
2021/11/24 02:11:49;;;;;;;9.57;6.75;;;25.90;68.50;;;;;;4146191;28;20054;-65
2021/11/24 02:13:51;;;;;;;10.77;6.55;;;26.00;68.30;;;;;;4138723;28;20079;-62
2021/11/24 02:15:53;;;;;;;11.07;7.97;;;26.00;68.10;;;;;;4138214;28;20044;-64
2021/11/24 02:18:03;;;;;;;11.40;7.67;;;26.00;67.40;;;;;;4138922;28;20336;-64
2021/11/24 02:20:11;;;;;;;11.38;8.43;;;26.10;67.70;;;;;;4138097;28;20521;-65
2021/11/24 02:22:14;;;;;;;13.60;8.15;;;26.10;67.60;;;;;;4136109;28;20052;-64
2021/11/24 02:24:21;;;;;;;9.38;7.20;;;26.10;67.70;;;;;;4142956;28;20426;-64
2021/11/24 02:26:24;;;;;;;10.77;7.63;;;26.10;67.70;;;;;;4143076;28;20317;-65
2021/11/24 02:28:26;;;;;;;9.90;7.75;;;26.10;67.50;;;;;;4143189;28;20048;-66
2021/11/24 02:30:29;;;;;;;10.32;7.15;;;26.10;67.50;;;;;;4136597;28;22090;-66
2021/11/24 02:32:32;;;;;;;10.10;7.57;;;26.10;67.30;;;;;;4136982;28;20831;-67
2021/11/24 02:34:35;;;;;;;7.95;6.95;;;26.10;67.30;;;;;;4138213;28;20052;-68
2021/11/24 02:36:37;;;;;;;10.63;7.90;;;26.20;67.40;;;;;;4120444;28;20573;-68
2021/11/24 02:38:45;;;;;;;10.82;8.25;;;26.20;67.50;;;;;;4142337;28;21273;-66
2021/11/24 02:40:47;;;;;;;13.10;8.18;;;26.20;67.60;;;;;;4141195;28;21469;-65
2021/11/24 02:42:50;;;;;;;13.87;7.97;;;26.30;67.60;;;;;;4145888;28;20869;-68
2021/11/24 02:44:52;;;;;;;11.63;8.45;;;26.30;67.40;;;;;;4140521;28;20301;-66
2021/11/24 02:47:07;;;;;;;9.80;7.68;;;26.40;67.50;;;;;;4122534;28;21735;-63
2021/11/24 02:49:09;;;;;;;9.48;7.18;;;26.50;67.50;;;;;;4141326;28;20761;-65
2021/11/24 02:51:11;;;;;;;10.25;7.13;;;26.50;67.60;;;;;;4123058;28;20768;-63
2021/11/24 02:53:13;;;;;;;7.87;7.00;;;26.60;67.40;;;;;;4139660;28;20048;-62
2021/11/24 02:55:16;;;;;;;9.50;6.87;;;26.60;67.40;;;;;;4140930;28;20775;-65
2021/11/24 02:57:19;;;;;;;11.98;7.18;;;26.60;67.10;;;;;;4144567;28;20102;-69
2021/11/24 02:59:22;;;;;;;10.90;6.70;;;26.60;67.20;;;;;;4146595;28;20948;-63
2021/11/24 03:01:24;;;;;;;13.65;7.03;;;26.60;67.20;;;;;;4147244;28;20102;-69
2021/11/24 03:03:27;;;;;;;;;;;26.70;66.90;;;;;;4128438;28;20167;-66
2021/11/24 03:05:33;;;;;;;9.85;6.70;;;26.70;67.00;;;;;;4142659;28;19927;-68
2021/11/24 03:07:41;;;;;;;11.93;6.97;;;26.70;66.70;;;;;;4144332;28;20063;-64
2021/11/24 03:09:45;;;;;;;9.57;6.18;;;26.80;66.70;;;;;;4146970;28;20052;-68
2021/11/24 03:11:47;;;;;;;7.20;6.45;;;26.80;66.70;;;;;;4147040;28;20635;-66
2021/11/24 03:13:50;;;;;;;9.68;6.35;;;26.80;66.60;;;;;;4149316;28;20114;-66
2021/11/24 03:15:52;;;;;;;7.13;5.80;;;26.80;66.50;;;;;;4146543;28;20337;-64
2021/11/24 03:17:55;;;;;;;7.30;5.93;;;26.90;66.50;;;;;;4149522;28;20483;-68
2021/11/24 03:19:57;;;;;;;;;;;26.90;66.50;;;;;;4148847;28;20382;-67
2021/11/24 03:22:02;;;;;;;9.00;6.38;;;26.90;66.20;;;;;;4124749;28;22162;-69
2021/11/24 03:24:05;;;;;;;8.23;6.40;;;27.00;66.20;;;;;;4140018;28;22288;-67
2021/11/24 03:26:07;;;;;;;9.27;6.80;;;27.00;66.20;;;;;;4141864;28;20686;-66
2021/11/24 03:28:16;;;;;;;11.90;6.93;;;27.00;66.00;;;;;;4139327;28;20545;-69
2021/11/24 03:30:22;;;;;;;6.82;5.93;;;27.00;65.90;;;;;;4142345;28;20131;-66
2021/11/24 03:32:28;;;;;;;9.82;6.07;;;27.10;66.10;;;;;;4139215;28;20052;-68
2021/11/24 03:34:31;;;;;;;10.02;6.07;;;27.10;66.00;;;;;;4138817;28;20048;-63
2021/11/24 03:36:40;;;;;;;7.93;5.60;;;27.20;66.00;;;;;;4123107;28;20064;-63
2021/11/24 03:38:42;;;;;;;7.60;5.68;;;27.20;65.80;;;;;;4137980;28;20466;-64
2021/11/24 03:40:45;;;;;;;8.25;5.18;;;27.20;65.70;;;;;;4142517;28;20117;-66
2021/11/24 03:42:47;;;;;;;9.10;6.45;;;27.20;65.60;;;;;;4144910;28;20712;-68
2021/11/24 03:44:50;;;;;;;7.80;5.55;;;27.30;65.50;;;;;;4136478;28;21346;-63
2021/11/24 03:46:52;;;;;;;7.20;5.60;;;27.30;65.50;;;;;;4135479;28;20205;-66
2021/11/24 03:48:54;;;;;;;8.90;5.75;;;27.30;65.40;;;;;;4131320;28;20116;-64
2021/11/24 03:50:56;;;;;;;7.80;5.43;;;27.40;65.40;;;;;;4135656;28;21846;-63
2021/11/24 03:52:59;;;;;;;8.10;5.68;;;27.40;65.20;;;;;;4134969;28;20071;-68
2021/11/24 03:55:07;;;;;;;8.20;5.93;;;27.40;65.50;;;;;;4144348;28;20105;-69
2021/11/24 03:57:10;;;;;;;9.80;5.40;;;27.40;65.80;;;;;;4140468;28;20480;-65
2021/11/24 03:59:20;;;;;;;9.32;5.63;;;27.50;65.80;;;;;;4139527;28;20201;-67
2021/11/24 04:02:14;;;;;;;7.63;5.88;;;27.50;64.90;;;;;;4130710;27;20438;-65
2021/11/24 04:04:16;;;;;;;6.78;5.20;;;27.60;65.70;;;;;;4131266;28;21771;-63
2021/11/24 04:06:18;;;;;;;7.68;5.30;;;27.60;66.10;;;;;;4076085;28;21297;-63
2021/11/24 04:08:21;;;;;;;6.28;4.95;;;27.70;65.50;;;;;;4088229;28;20045;-67
2021/11/24 04:10:23;;;;;;;6.93;5.32;;;27.70;65.50;;;;;;4091923;28;20859;-63
2021/11/24 04:12:26;;;;;;;10.15;5.53;;;27.70;65.30;;;;;;4071704;28;21013;-63
2021/11/24 04:14:28;;;;;;;7.97;5.10;;;27.80;65.60;;;;;;4072395;28;20165;-65
2021/11/24 04:16:30;;;;;;;7.68;5.38;;;27.80;65.40;;;;;;4067780;28;20073;-61
2021/11/24 04:18:32;;;;;;;5.72;4.60;;;27.80;64.90;;;;;;4068352;28;20069;-60
2021/11/24 04:20:35;;;;;;;5.67;4.73;;;27.80;62.40;;;;;;4067476;28;20164;-63
2021/11/24 04:22:37;;;;;;;5.00;4.13;;;27.60;60.20;;;;;;4070507;28;21704;-60
2021/11/24 04:24:41;;;;;;;5.72;4.00;;;27.50;59.10;;;;;;4073535;28;20096;-59
2021/11/24 04:26:43;;;;;;;5.57;3.90;;;27.30;58.20;;;;;;4068691;28;22386;-61
2021/11/24 04:28:45;;;;;;;5.53;3.83;;;27.20;57.70;;;;;;4068072;28;20060;-63
2021/11/24 04:30:47;;;;;;;4.30;3.77;;;27.10;56.90;;;;;;4070068;28;20700;-61
2021/11/24 04:32:51;;;;;;;4.63;3.70;;;27.00;56.70;;;;;;4068385;28;20469;-59
2021/11/24 04:34:53;;;;;;;5.97;3.80;;;26.90;56.10;;;;;;4067326;28;21286;-59
2021/11/24 04:36:55;;;;;;;4.30;3.72;;;26.80;55.60;;;;;;4074955;28;20054;-61
2021/11/24 04:38:57;;;;;;;4.63;3.75;;;26.60;55.20;;;;;;4071732;28;20050;-60
2021/11/24 04:40:59;;;;;;;7.75;3.47;;;26.60;55.10;;;;;;4066292;28;20057;-62
2021/11/24 04:43:05;;;;;;;3.70;3.30;;;26.50;54.80;;;;;;4050267;28;21822;-60
2021/11/24 04:45:07;;;;;;;3.53;3.10;;;26.40;54.50;;;;;;4066219;28;20054;-60
2021/11/24 04:47:09;;;;;;;4.43;3.22;;;26.30;54.50;;;;;;4065909;28;20505;-62
2021/11/24 04:49:12;;;;;;;4.03;3.43;;;26.20;54.70;;;;;;4066238;28;20749;-61
2021/11/24 04:51:14;;;;;;;4.10;3.00;;;26.10;54.60;;;;;;4073662;28;20304;-60
2021/11/24 04:53:16;;;;;;;4.00;3.15;;;26.10;54.60;;;;;;4070489;28;20092;-60
2021/11/24 04:55:19;;;;;;;3.63;3.05;;;26.00;54.40;;;;;;4064422;28;20136;-61
2021/11/24 04:57:21;;;;;;;3.92;3.30;;;25.90;54.50;;;;;;4066847;28;20064;-60
2021/11/24 04:59:23;;;;;;;4.17;3.37;;;25.90;54.70;;;;;;4069449;28;20050;-60
2021/11/24 05:01:26;;;;;;;4.53;3.17;;;25.80;54.70;;;;;;4066030;28;20093;-61
2021/11/24 05:03:28;;;;;;;4.65;3.35;;;25.70;54.70;;;;;;4068461;28;20374;-60
2021/11/24 05:05:32;;;;;;;4.40;3.20;;;25.70;54.90;;;;;;4074269;28;20052;-64
2021/11/24 05:07:34;;;;;;;3.67;3.00;;;25.60;54.90;;;;;;4068939;28;20831;-62
2021/11/24 05:09:36;;;;;;;4.68;3.47;;;25.50;54.80;;;;;;4066138;28;20696;-62
2021/11/24 05:11:40;;;;;;;4.32;3.03;;;25.50;55.00;;;;;;4068136;28;21836;-61
2021/11/24 05:14:04;;;;;;;4.20;3.20;;;25.40;54.90;;;;;;4054793;28;20901;-64
2021/11/24 05:16:07;;;;;;;3.90;3.15;;;25.30;54.80;;;;;;4062905;28;20061;-64
2021/11/24 05:18:18;;;;;;;4.53;3.15;;;25.30;54.70;;;;;;4059913;28;20804;-60
2021/11/24 05:20:23;;;;;;;8.68;3.10;;;25.30;54.90;;;;;;4063027;28;20046;-62
2021/11/24 05:22:26;;;;;;;4.10;2.70;;;25.10;55.00;;;;;;4058477;28;20121;-64
2021/11/24 05:24:28;;;;;;;4.35;3.03;;;25.10;55.00;;;;;;4056403;28;20089;-62
2021/11/24 05:26:32;;;;;;;5.00;3.00;;;25.00;54.80;;;;;;4056426;28;20170;-62
2021/11/24 05:28:34;;;;;;;5.55;3.95;;;25.00;55.10;;;;;;4056535;28;20097;-63
2021/11/24 05:30:36;;;;;;;8.17;4.33;;;25.00;55.10;;;;;;4058540;28;20054;-61
2021/11/24 05:32:39;;;;;;;8.02;5.43;;;24.90;55.20;;;;;;4061275;28;20081;-64
2021/11/24 05:34:41;;;;;;;7.78;5.45;;;;;;;;;;4064908;28;20050;-63
2021/11/24 05:36:43;;;;;;;8.57;5.25;;;;;;;;;;4060292;28;20054;-61
2021/11/24 05:38:46;;;;;;;11.85;9.50;;;24.90;55.40;;;;;;4049730;28;20062;-62
2021/11/24 05:40:51;;;;;;;22.98;18.42;;;24.70;55.90;;;;;;4066207;28;20100;-64
2021/11/24 05:42:53;;;;;;;36.83;32.55;;;24.70;56.10;;;;;;4067560;28;20077;-59
2021/11/24 05:45:04;;;;;;;45.40;39.92;;;24.70;56.00;;;;;;4068504;28;20045;-62
2021/11/24 05:47:21;;;;;;;42.67;37.80;;;24.60;56.00;;;;;;4053795;28;21384;-59
2021/11/24 05:49:24;;;;;;;40.08;34.50;;;24.60;56.20;;;;;;4053727;28;22305;-60
2021/11/24 05:51:26;;;;;;;38.90;33.25;;;24.50;57.00;;;;;;4052639;28;20113;-60
2021/11/24 05:53:28;;;;;;;34.15;30.15;;;24.60;57.50;;;;;;4052635;28;20050;-61
2021/11/24 05:55:31;;;;;;;32.95;28.75;;;24.60;57.80;;;;;;4053544;28;20069;-61
2021/11/24 05:57:33;;;;;;;27.10;23.50;;;24.70;58.00;;;;;;4056974;28;20052;-61
2021/11/24 05:59:35;;;;;;;25.15;21.75;;;24.70;58.40;;;;;;4060896;28;20050;-60
2021/11/24 06:01:38;;;;;;;24.13;20.52;;;24.80;58.60;;;;;;4051272;28;20059;-61
2021/11/24 06:03:41;;;;;;;20.83;17.75;;;24.80;58.90;;;;;;4051933;28;22068;-64
2021/11/24 06:05:45;;;;;;;20.10;16.52;;;24.80;59.10;;;;;;4031520;28;21056;-61
2021/11/24 06:07:47;;;;;;;18.30;15.15;;;24.90;59.80;;;;;;4042731;28;20457;-63
2021/11/24 06:09:53;;;;;;;18.33;14.40;;;25.00;60.00;;;;;;4048374;28;20114;-61
2021/11/24 06:11:55;;;;;;;15.73;12.63;;;25.10;60.80;;;;;;4042175;28;20057;-60
2021/11/24 06:14:03;;;;;;;16.42;13.40;;;25.10;61.70;;;;;;4061647;28;21541;-62
2021/11/24 06:16:29;;;;;;;17.27;13.02;;;25.20;61.70;;;;;;4055251;28;20552;-62
2021/11/24 06:18:31;;;;;;;13.55;11.80;;;25.10;59.80;;;;;;4058689;28;20050;-59
2021/11/24 06:20:36;;;;;;;13.02;11.23;;;25.00;57.70;;;;;;4036805;28;20057;-59
2021/11/24 06:22:50;;;;;;;13.13;10.55;;;24.90;57.60;;;;;;4049957;28;21825;-62
2021/11/24 06:24:52;;;;;;;12.60;10.10;;;24.80;57.20;;;;;;4049574;28;21663;-59
2021/11/24 06:26:55;;;;;;;9.45;7.65;;;24.80;57.00;;;;;;4051099;28;20137;-63
2021/11/24 06:28:57;;;;;;;9.65;7.60;;;24.70;56.40;;;;;;4065544;28;20132;-60
2021/11/24 06:31:00;;;;;;;9.18;7.40;;;24.70;55.70;;;;;;4051735;28;20042;-61
2021/11/24 06:33:02;;;;;;;9.65;6.93;;;24.60;55.60;;;;;;4040756;28;20054;-61
2021/11/24 06:35:06;;;;;;;8.13;5.65;;;24.50;55.80;;;;;;4057927;28;20640;-59
2021/11/24 06:37:08;;;;;;;7.40;5.70;;;24.40;55.00;;;;;;4055122;28;20058;-55
2021/11/24 06:39:11;;;;;;;7.47;5.72;;;24.30;55.10;;;;;;4052906;28;20062;-58
2021/11/24 06:41:23;;;;;;;6.40;5.15;;;24.30;55.00;;;;;;4053917;28;20108;-60
2021/11/24 06:43:26;;;;;;;5.95;4.80;;;24.20;54.90;;;;;;4048980;28;21197;-62
2021/11/24 06:45:38;;;;;;;5.78;4.63;;;24.10;55.10;;;;;;4053758;28;20161;-63
2021/11/24 06:47:41;;;;;;;5.38;3.95;;;24.00;55.00;;;;;;4048307;28;20164;-63
2021/11/24 06:49:49;;;;;;;5.15;3.55;;;23.90;55.20;;;;;;4051824;28;20050;-62
2021/11/24 06:51:51;;;;;;;5.53;3.80;;;23.90;54.90;;;;;;4051168;28;20050;-61
2021/11/24 06:53:53;;;;;;;5.90;3.58;;;23.80;55.20;;;;;;4051938;28;20695;-61
2021/11/24 06:55:56;;;;;;;5.72;3.65;;;23.70;54.90;;;;;;4050346;28;20089;-61
2021/11/24 06:58:02;;;;;;;4.72;3.15;;;23.70;55.00;;;;;;4057872;28;20058;-62
2021/11/24 07:02:15;;;;;;;4.97;3.05;;;23.50;54.30;;;;;;4147734;27;20449;-62
2021/11/24 07:04:17;;;;;;;5.03;2.97;;;23.50;55.00;;;;;;4148457;28;20109;-59
2021/11/24 07:06:23;;;;;;;6.25;2.80;;;23.40;55.10;;;;;;4144476;28;21106;-59
2021/11/24 07:08:25;;;;;;;5.30;2.50;;;23.40;55.20;;;;;;4142197;28;20087;-60
2021/11/24 07:10:28;;;;;;;3.60;2.40;;;23.30;55.30;;;;;;4132921;28;20655;-61
2021/11/24 07:12:30;;;;;;;3.60;2.65;;;23.20;55.20;;;;;;4123873;28;20609;-54
2021/11/24 07:14:33;;;;;;;4.75;2.63;;;23.20;55.30;;;;;;4130745;28;20052;-60
2021/11/24 07:16:42;;;;;;;3.90;2.50;;;23.20;55.40;;;;;;4133030;28;20056;-61
2021/11/24 07:18:49;;;;;;;4.13;2.70;;;23.10;55.30;;;;;;4132920;28;20041;-60
2021/11/24 07:20:54;;;;;;;4.20;2.63;;;23.10;55.30;;;;;;4056062;28;20885;-64
2021/11/24 07:22:56;;;;;;;6.55;2.70;;;23.00;55.30;;;;;;4088277;28;20524;-63
2021/11/24 07:25:03;;;;;;;6.05;3.20;;;23.00;55.50;;;;;;4088262;28;20112;-61
2021/11/24 07:27:12;;;;;;;6.35;2.83;;;22.90;55.50;;;;;;4085800;28;21185;-62
2021/11/24 07:29:28;;;;;;;4.57;2.97;;;22.90;55.40;;;;;;4085900;28;20918;-63
2021/11/24 07:31:41;;;;;;;4.57;2.60;;;22.80;55.60;;;;;;4085714;28;20802;-65
2021/11/24 07:33:44;;;;;;;5.68;2.60;;;22.80;55.60;;;;;;4097653;28;21093;-62
2021/11/24 07:35:50;;;;;;;5.30;2.58;;;22.70;55.60;;;;;;4082994;28;20100;-62
2021/11/24 07:37:56;;;;;;;3.45;2.30;;;22.60;55.80;;;;;;4092266;28;20555;-64
2021/11/24 07:39:58;;;;;;;5.25;2.63;;;;;;;;;;4093437;28;20045;-62
2021/11/24 07:42:01;;;;;;;8.25;2.83;;;;;;;;;;4097592;28;20107;-59
2021/11/24 07:44:05;;;;;;;5.32;2.70;;;;;;;;;;4103359;28;20187;-61
2021/11/24 07:46:10;;;;;;;5.00;2.50;;;;;;;;;;4098794;28;20049;-60
2021/11/24 07:48:12;;;;;;;4.50;2.63;;;;;;;;;;4097735;28;20596;-64
2021/11/24 07:50:14;;;;;;;5.45;2.83;;;;;;;;;;4096915;28;20890;-59
2021/11/24 07:52:20;;;;;;;5.72;3.13;;;;;;;;;;4097526;28;20172;-61
2021/11/24 07:54:22;;;;;;;6.15;3.28;;;;;;;;;;4096809;28;20201;-61
2021/11/24 07:56:28;;;;;;;9.10;3.20;;;;;;;;;;4095303;28;20057;-60
2021/11/24 07:58:34;;;;;;;5.82;3.42;;;22.60;55.90;;;;;;4097045;28;20119;-61
2021/11/24 08:00:36;;;;;;;8.15;3.10;;;22.90;63.70;;;;;;4081715;28;20783;-60
2021/11/24 08:02:41;;;;;;;6.07;2.65;;;23.00;63.70;;;;;;4101203;28;20049;-61
2021/11/24 08:04:43;;;;;;;5.32;2.55;;;23.10;63.90;;;;;;4097842;28;20053;-61
2021/11/24 08:06:46;;;;;;;4.83;2.70;;;23.20;63.90;;;;;;4094657;28;20049;-60
2021/11/24 08:08:48;;;;;;;5.68;2.90;;;23.30;63.90;;;;;;4093113;28;20348;-62
2021/11/24 08:10:50;;;;;;;6.43;2.67;;;23.40;63.90;;;;;;4079924;28;20055;-61
2021/11/24 08:12:53;;;;;;;7.13;2.57;;;23.40;63.80;;;;;;4090263;28;20131;-61
2021/11/24 08:14:55;;;;;;;6.80;2.23;;;23.50;63.90;;;;;;4073827;28;20050;-62
2021/11/24 08:16:57;;;;;;;6.30;2.15;;;23.60;64.30;;;;;;4089255;28;20660;-61
2021/11/24 08:19:00;;;;;;;5.30;2.40;;;23.60;64.40;;;;;;4087717;28;21155;-60
2021/11/24 08:21:02;;;;;;;6.05;2.72;;;23.70;64.60;;;;;;4083530;28;21938;-61
2021/11/24 08:23:05;;;;;;;4.60;2.05;;;23.70;64.80;;;;;;4082558;28;20103;-61
2021/11/24 08:25:08;;;;;;;4.85;2.13;;;23.80;64.80;;;;;;4082996;28;20060;-62
2021/11/24 08:27:10;;;;;;;5.90;2.60;;;23.90;65.00;;;;;;4088056;28;20120;-61
2021/11/24 08:29:13;;;;;;;4.25;2.55;;;24.00;65.10;;;;;;4091297;28;20053;-64
2021/11/24 08:31:15;;;;;;;7.20;2.80;;;24.00;65.10;;;;;;4091282;28;20050;-62
2021/11/24 08:33:17;;;;;;;6.85;3.08;;;24.00;64.90;;;;;;4086388;28;20264;-61
2021/11/24 08:35:21;;;;;;;4.10;2.20;;;24.10;65.00;;;;;;4086890;28;20144;-62
2021/11/24 08:37:23;;;;;;;6.30;2.72;;;24.20;65.10;;;;;;4085953;28;20060;-62
2021/11/24 08:39:25;;;;;;;4.47;2.40;;;24.20;65.10;;;;;;4084958;28;20244;-62
2021/11/24 08:41:28;;;;;;;4.72;2.30;;;24.30;65.20;;;;;;4080115;28;20276;-64
2021/11/24 08:43:30;;;;;;;5.38;2.60;;;24.30;65.20;;;;;;4090937;28;20143;-62
2021/11/24 08:45:34;;;;;;;4.15;2.10;;;24.30;65.10;;;;;;4083662;28;20060;-61
2021/11/24 08:47:37;;;;;;;6.00;2.47;;;24.40;65.20;;;;;;4082704;28;20049;-62
2021/11/24 08:49:39;;;;;;;5.45;2.47;;;24.40;65.20;;;;;;4094790;28;20834;-62
2021/11/24 08:51:42;;;;;;;4.73;2.33;;;24.50;65.20;;;;;;4098986;28;20053;-62
2021/11/24 08:53:45;;;;;;;5.70;2.30;;;24.50;65.10;;;;;;4085648;28;20049;-62
2021/11/24 08:55:48;;;;;;;6.05;2.30;;;24.60;65.20;;;;;;4072168;28;20042;-61
2021/11/24 08:57:51;;;;;;;6.25;2.70;;;24.60;65.20;;;;;;4092700;28;20192;-62
2021/11/24 08:59:54;;;;;;;7.72;3.00;;;24.60;65.30;;;;;;4078056;28;20054;-64
2021/11/24 09:01:56;;;;;;;6.90;3.03;;;24.70;65.30;;;;;;4081946;28;20067;-62
2021/11/24 09:03:59;;;;;;;5.93;2.63;;;24.70;65.20;;;;;;4083609;28;20146;-60
2021/11/24 09:06:06;;;;;;;5.77;2.43;;;24.80;64.90;;;;;;4081147;28;20505;-60
2021/11/24 09:08:11;;;;;;;6.78;2.72;;;24.80;65.30;;;;;;4069700;28;20172;-61
2021/11/24 09:10:14;;;;;;;6.63;2.47;;;24.80;65.50;;;;;;4083526;28;20460;-63
2021/11/24 09:12:19;;;;;;;6.25;2.55;;;24.80;65.40;;;;;;4082153;28;20143;-60
2021/11/24 09:14:23;;;;;;;5.40;2.42;;;24.90;65.40;;;;;;4083087;28;20181;-61
2021/11/24 09:16:26;;;;;;;5.88;2.65;;;24.90;65.30;;;;;;4090555;28;20144;-62
2021/11/24 09:18:29;;;;;;;7.45;2.50;;;25.00;65.40;;;;;;4088509;28;20064;-62
2021/11/24 09:20:34;;;;;;;4.95;2.50;;;25.00;65.40;;;;;;4083602;28;20156;-61
2021/11/24 09:22:40;;;;;;;6.05;2.60;;;25.10;65.50;;;;;;4090959;28;20045;-62
2021/11/24 09:24:43;;;;;;;4.97;2.50;;;25.10;65.40;;;;;;4069414;28;21314;-61
2021/11/24 09:26:55;;;;;;;4.80;2.42;;;25.10;65.40;;;;;;4083924;28;20122;-60
2021/11/24 09:28:58;;;;;;;5.47;2.38;;;25.10;65.40;;;;;;4083232;28;20744;-62
2021/11/24 09:31:01;;;;;;;8.37;3.30;;;25.20;65.50;;;;;;4079926;28;20049;-61
2021/11/24 09:33:03;;;;;;;4.43;2.30;;;25.20;65.40;;;;;;4086072;28;20069;-61
2021/11/24 09:35:09;;;;;;;7.13;2.73;;;25.20;65.40;;;;;;4086053;28;20467;-60
2021/11/24 09:37:11;;;;;;;6.82;2.67;;;25.30;65.50;;;;;;4083893;28;20152;-62
2021/11/24 09:39:14;;;;;;;5.40;2.45;;;25.30;65.40;;;;;;4089097;28;20060;-61
2021/11/24 09:41:21;;;;;;;3.88;2.42;;;25.30;65.50;;;;;;4088685;28;20115;-61
2021/11/24 09:43:27;;;;;;;4.90;2.45;;;25.40;65.50;;;;;;4073817;28;20683;-61
2021/11/24 09:45:38;;;;;;;6.45;2.20;;;25.40;65.40;;;;;;4087380;28;20061;-61
2021/11/24 09:47:45;;;;;;;3.67;2.30;;;25.40;65.50;;;;;;4090296;28;20053;-61
2021/11/24 09:49:49;;;;;;;3.50;2.13;;;25.40;65.50;;;;;;4088147;28;20997;-61
2021/11/24 09:51:52;;;;;;;5.78;2.50;;;25.50;65.50;;;;;;4069220;28;20127;-62
2021/11/24 09:53:55;;;;;;;3.45;2.22;;;25.50;65.40;;;;;;4082255;28;21122;-62
2021/11/24 09:55:57;;;;;;;6.25;2.47;;;25.50;65.50;;;;;;4080357;28;20045;-61
2021/11/24 09:58:00;;;;;;;4.32;2.33;;;25.50;65.40;;;;;;4083334;28;20140;-61
2021/11/24 10:02:14;;;;;;;3.55;2.00;;;25.60;64.90;;;;;;4135197;27;20444;-60
2021/11/24 10:04:18;;;;;;;5.25;2.42;;;25.60;65.40;;;;;;4118743;28;20680;-61
2021/11/24 10:06:22;;;;;;;4.93;2.45;;;25.60;65.40;;;;;;4134649;28;20052;-63
2021/11/24 10:08:31;;;;;;;5.72;2.60;;;25.60;65.40;;;;;;4138709;28;20148;-61
2021/11/24 10:10:34;;;;;;;4.97;2.30;;;25.70;65.50;;;;;;4126803;28;20056;-61
2021/11/24 10:12:37;;;;;;;4.82;2.35;;;25.70;65.70;;;;;;4125983;28;20084;-61
2021/11/24 10:14:41;;;;;;;5.63;2.63;;;25.70;65.50;;;;;;4124376;28;20048;-61
2021/11/24 10:16:46;;;;;;;4.70;2.63;;;25.70;65.30;;;;;;4118427;28;22339;-64
2021/11/24 10:19:09;;;;;;;5.97;2.25;;;25.80;65.40;;;;;;4116876;28;22300;-63
2021/11/24 10:21:17;;;;;;;5.47;2.45;;;25.80;65.30;;;;;;4117535;28;20052;-64
2021/11/24 10:23:23;;;;;;;5.20;2.17;;;25.80;65.30;;;;;;4116335;28;20953;-62
2021/11/24 10:25:26;;;;;;;4.60;2.67;;;25.80;65.20;;;;;;4116749;28;20059;-64
2021/11/24 10:27:43;;;;;;;3.93;2.33;;;25.80;65.30;;;;;;4126325;28;20167;-64
2021/11/24 10:29:55;;;;;;;7.43;2.63;;;25.80;65.30;;;;;;4117754;28;20068;-62
2021/11/24 10:32:05;;;;;;;5.13;2.55;;;25.80;65.40;;;;;;4101399;28;20371;-60
2021/11/24 10:34:13;;;;;;;4.43;2.47;;;25.90;65.60;;;;;;4123539;28;20048;-59
2021/11/24 10:36:15;;;;;;;4.82;2.50;;;25.90;65.70;;;;;;4118411;28;20127;-58
2021/11/24 10:38:19;;;;;;;4.72;2.78;;;25.90;65.70;;;;;;4117818;28;20048;-59
2021/11/24 10:40:21;;;;;;;4.85;2.45;;;25.90;65.70;;;;;;4119816;28;20808;-60
2021/11/24 10:42:31;;;;;;;4.32;2.35;;;25.90;65.60;;;;;;4117331;28;20052;-61
2021/11/24 10:44:35;;;;;;;4.13;2.08;;;25.90;65.50;;;;;;4122888;28;20048;-60
2021/11/24 10:46:37;;;;;;;5.32;2.38;;;26.00;65.50;;;;;;4119598;28;20048;-61
2021/11/24 10:48:41;;;;;;;4.65;2.63;;;26.00;65.50;;;;;;4129164;28;20105;-62
2021/11/24 10:50:43;;;;;;;7.65;2.63;;;26.00;65.60;;;;;;4125529;28;20172;-61
2021/11/24 10:52:46;;;;;;;4.07;2.03;;;26.00;65.50;;;;;;4120847;28;20052;-61